Time;durP1;ratioP1;P1;durP2;ratioP2;P2;SDS_P1;SDS_P2;PMS_P1;PMS_P2;Temp;Humidity;BMP_temperature;BMP_pressure;BME280_temperature;BME280_humidity;BME280_pressure;Samples;Min_cycle;Max_cycle;Signal;HPM_P1;HPM_P2
2021/01/29 00:01:08;;;;;;;3.00;1.00;;;;;;;13.53;84.31;99765.78;5052500;28;20049;-76
2021/01/29 00:03:35;;;;;;;3.58;0.70;;;;;;;13.58;83.74;99763.56;5054627;28;20049;-76
2021/01/29 00:06:04;;;;;;;1.35;0.60;;;;;;;13.54;84.21;99770.16;5036788;28;20083;-75
2021/01/29 00:08:33;;;;;;;1.45;0.68;;;;;;;13.51;84.15;99760.59;5052298;28;20045;-73
2021/01/29 00:11:01;;;;;;;2.75;0.60;;;;;;;13.50;84.44;99760.97;5018527;28;20045;-73
2021/01/29 00:13:28;;;;;;;2.05;0.70;;;;;;;13.70;82.98;99765.44;5052487;28;20049;-73
2021/01/29 00:15:55;;;;;;;1.33;0.60;;;;;;;13.63;83.65;99753.38;5051603;28;20488;-73
2021/01/29 00:18:23;;;;;;;2.80;0.50;;;;;;;13.53;84.25;99740.88;5033252;28;20053;-74
2021/01/29 00:20:50;;;;;;;2.38;0.73;;;;;;;13.62;83.83;99741.50;5021062;28;20057;-73
2021/01/29 00:23:19;;;;;;;0.88;0.65;;;;;;;13.86;82.53;99743.28;5051068;28;20056;-72
2021/01/29 00:25:52;;;;;;;0.60;0.50;;;;;;;13.42;83.87;99740.59;5051585;28;20053;-74
2021/01/29 00:28:20;;;;;;;1.67;0.70;;;;;;;13.63;83.94;99717.41;5016981;28;20072;-73
2021/01/29 00:30:49;;;;;;;1.17;0.68;;;;;;;13.55;84.22;99720.00;5017268;28;20388;-72
2021/01/29 00:33:22;;;;;;;1.63;0.50;;;;;;;13.45;84.31;99722.50;5051168;28;20052;-72
2021/01/29 00:35:53;;;;;;;0.95;0.40;;;;;;;13.35;84.81;99709.22;5020450;28;20492;-73
2021/01/29 00:38:20;;;;;;;0.82;0.40;;;;;;;13.35;85.05;99711.97;5037061;28;20040;-73
2021/01/29 00:40:47;;;;;;;0.57;0.35;;;;;;;13.35;85.47;99704.47;5053850;28;20049;-72
2021/01/29 00:43:14;;;;;;;0.32;0.28;;;;;;;13.50;85.17;99695.38;5020203;28;20052;-73
2021/01/29 00:45:43;;;;;;;0.90;0.47;;;;;;;13.60;84.13;99696.78;5054228;28;20056;-72
2021/01/29 00:48:10;;;;;;;0.50;0.32;;;;;;;13.46;83.91;99690.91;5054372;28;20060;-72
2021/01/29 00:50:38;;;;;;;2.03;0.32;;;;;;;13.51;83.76;99690.66;5032910;28;20049;-73
2021/01/29 00:53:06;;;;;;;1.65;0.60;;;;;;;13.61;83.42;99694.84;5035511;28;20049;-73
2021/01/29 00:55:33;;;;;;;1.55;0.65;;;;;;;13.67;82.98;99682.34;5020711;28;20030;-74
2021/01/29 00:58:04;;;;;;;2.60;0.40;;;;;;;13.66;82.48;99678.75;5020731;28;20074;-74
2021/01/29 01:01:04;;;;;;;1.27;0.30;;;;;;;13.64;81.88;99681.09;5019589;28;20076;-72
2021/01/29 01:03:36;;;;;;;1.33;0.50;;;;;;;13.75;81.32;99682.16;5021169;28;20400;-74
2021/01/29 01:06:06;;;;;;;1.23;0.55;;;;;;;13.71;81.69;99670.19;5036919;28;20052;-73
2021/01/29 01:08:56;;;;;;;0.98;0.38;;;;;;;13.58;82.71;99669.47;5052083;28;20045;-73
2021/01/29 01:11:34;;;;;;;0.75;0.35;;;;;;;13.65;82.49;99654.22;5036277;28;20053;-72
2021/01/29 01:14:20;;;;;;;1.92;0.40;;;;;;;13.56;82.08;99663.50;5026923;28;20049;-72
2021/01/29 01:17:10;;;;;;;1.50;0.47;;;;;;;13.65;81.85;99682.66;5036065;28;20049;-72
2021/01/29 01:19:51;;;;;;;0.55;0.38;;;;;;;13.58;81.63;99675.00;5035877;28;20389;-74
2021/01/29 01:22:19;;;;;;;1.55;0.32;;;;;;;13.69;81.24;99677.22;5020100;28;20045;-75
2021/01/29 01:24:57;;;;;;;1.40;0.40;;;;;;;13.60;82.01;99665.56;5033605;28;20519;-74
2021/01/29 01:27:26;;;;;;;1.45;0.38;;;;;;;13.03;84.28;99730.47;5037224;28;20060;-73
2021/01/29 01:30:18;;;;;;;1.73;0.28;;;;;;;12.69;79.29;99716.44;5026376;28;20052;-74
2021/01/29 01:32:52;;;;;;;1.15;0.25;;;;;;;12.60;79.32;99752.50;5020407;28;20056;-72
2021/01/29 01:35:45;;;;;;;2.28;0.40;;;;;;;12.31;78.38;99744.50;5007021;28;20090;-72
2021/01/29 01:38:12;;;;;;;0.63;0.38;;;;;;;12.12;78.04;99734.09;5035596;28;20037;-72
2021/01/29 01:40:46;;;;;;;1.13;0.30;;;;;;;12.16;78.22;99739.72;5038248;28;20045;-73
2021/01/29 01:43:29;;;;;;;1.58;0.32;;;;;;;12.06;77.42;99749.28;5021021;28;20056;-76
2021/01/29 01:46:17;;;;;;;1.10;0.32;;;;;;;11.84;78.05;99737.88;5035593;28;20496;-75
2021/01/29 01:49:13;;;;;;;4.70;0.60;;;;;;;11.87;79.00;99745.50;5040587;28;20059;-72
2021/01/29 01:52:06;;;;;;;3.20;0.40;;;;;;;11.82;77.83;99752.03;5039542;28;20516;-72
2021/01/29 01:55:09;;;;;;;0.63;0.30;;;;;;;11.77;78.24;99723.91;5033068;28;20079;-73
2021/01/29 01:57:44;;;;;;;1.30;0.20;;;;;;;11.62;77.20;99738.31;5020614;28;20052;-73
2021/01/29 02:00:19;;;;;;;1.52;0.20;;;;;;;11.87;76.92;99732.50;5032586;28;20053;-73
2021/01/29 02:03:09;;;;;;;0.82;0.40;;;;;;;11.70;76.80;99742.97;5035969;28;20055;-72
2021/01/29 02:05:57;;;;;;;0.67;0.20;;;;;;;11.48;77.36;99738.66;5038276;28;20048;-73
2021/01/29 02:08:25;;;;;;;0.45;0.20;;;;;;;11.59;77.54;99725.22;5053427;28;20436;-73
2021/01/29 02:11:01;;;;;;;2.05;0.30;;;;;;;11.74;77.04;99728.13;5037093;28;20522;-75
2021/01/29 02:13:45;;;;;;;1.80;0.32;;;;;;;11.68;77.75;99739.75;5035740;28;20792;-74
2021/01/29 02:17:03;;;;;;;1.02;0.22;;;;;;;11.48;77.13;99735.09;4938909;29;20463;-77
2021/01/29 02:20:26;;;;;;;5.43;0.30;;;;;;;11.44;76.96;99745.22;4941336;29;20051;-75
2021/01/29 02:23:26;;;;;;;2.13;0.30;;;;;;;11.35;76.63;99739.78;4953852;28;20155;-76
2021/01/29 02:26:49;;;;;;;2.70;0.50;;;;;;;11.76;77.68;99742.41;4935514;29;20059;-76
2021/01/29 02:29:54;;;;;;;4.10;0.40;;;;;;;11.52;76.05;99750.63;4925964;29;20047;-74
2021/01/29 02:32:37;;;;;;;1.77;0.30;;;;;;;11.51;76.03;99749.00;4952867;29;20043;-74
2021/01/29 02:35:25;;;;;;;2.28;0.38;;;;;;;11.61;75.65;99756.03;4935067;29;20495;-74
2021/01/29 02:38:00;;;;;;;1.70;0.30;;;;;;;11.56;76.02;99742.47;4937281;29;20071;-74
2021/01/29 02:40:59;;;;;;;2.33;0.63;;;;;;;11.62;76.33;99736.38;4949296;29;20546;-76
2021/01/29 02:43:41;;;;;;;1.90;0.40;;;;;;;11.67;75.59;99744.47;4952519;29;20062;-75
2021/01/29 02:46:56;;;;;;;2.80;0.60;;;;;;;11.72;75.71;99751.69;4952203;28;20159;-74
2021/01/29 02:50:20;;;;;;;2.95;0.60;;;;;;;11.71;75.48;99750.91;4896500;29;20519;-72
2021/01/29 02:53:42;;;;;;;2.10;0.50;;;;;;;11.75;75.80;99734.47;4929707;28;20143;-75
2021/01/29 02:57:22;;;;;;;4.53;0.85;;;;;;;11.76;75.66;99731.34;4934693;29;20067;-74
2021/01/29 03:00:12;;;;;;;4.43;0.60;;;;;;;11.88;75.60;99741.59;4915488;29;20072;-74
2021/01/29 03:03:08;;;;;;;4.82;0.80;;;;;;;11.94;76.31;99742.97;4875357;29;20092;-75
2021/01/29 03:05:56;;;;;;;2.65;0.50;;;;;;;11.89;76.22;99741.22;4869034;29;20045;-75
2021/01/29 03:08:42;;;;;;;4.40;0.90;;;;;;;11.97;75.41;99740.31;4876290;29;20057;-75
2021/01/29 03:11:36;;;;;;;4.40;0.60;;;;;;;11.86;75.14;99741.13;4854079;29;20065;-75
2021/01/29 03:14:31;;;;;;;9.43;0.90;;;;;;;11.81;75.46;99750.44;4860681;29;20049;-75
2021/01/29 03:17:22;;;;;;;3.20;0.73;;;;;;;11.79;75.99;99758.25;4860083;29;20053;-75
2021/01/29 03:20:19;;;;;;;3.55;0.90;;;;;;;12.02;75.57;99739.28;4872544;29;20057;-74
2021/01/29 03:23:13;;;;;;;5.93;0.82;;;;;;;11.82;75.30;99760.31;4862880;29;20053;-73
2021/01/29 03:26:06;;;;;;;2.95;0.60;;;;;;;11.84;75.24;99746.97;4865531;29;20060;-74
2021/01/29 03:28:58;;;;;;;7.03;0.90;;;;;;;11.83;75.05;99752.84;4877380;29;20060;-74
2021/01/29 03:31:47;;;;;;;7.25;0.85;;;;;;;11.85;75.97;99756.06;4882519;29;20057;-75
2021/01/29 03:34:48;;;;;;;6.53;1.33;;;;;;;11.86;75.25;99741.94;4869937;29;20192;-76
2021/01/29 03:38:17;;;;;;;8.10;1.35;;;;;;;12.09;75.07;99739.50;4931826;29;20055;-73
2021/01/29 03:41:26;;;;;;;7.85;1.65;;;;;;;11.82;75.27;99756.78;4979400;28;20051;-73
2021/01/29 03:44:19;;;;;;;12.88;1.13;;;;;;;11.77;75.65;99763.31;4967233;28;20637;-75
2021/01/29 03:47:08;;;;;;;8.02;1.00;;;;;;;12.02;75.56;99750.31;4991296;28;20043;-74
2021/01/29 03:50:13;;;;;;;5.40;1.20;;;;;;;11.80;76.26;99759.06;4963805;28;20529;-75
2021/01/29 03:53:32;;;;;;;6.47;1.45;;;;;;;11.60;76.29;99757.97;4952717;29;20070;-75
2021/01/29 03:56:32;;;;;;;5.68;1.02;;;;;;;11.57;76.98;99768.91;4946079;29;20396;-75
2021/01/29 03:59:26;;;;;;;7.32;1.13;;;;;;;11.61;76.76;99769.81;4938940;29;20055;-74
2021/01/29 04:02:31;;;;;;;7.25;1.02;;;;;;;11.71;76.25;99772.97;4949642;28;20055;-74
2021/01/29 04:05:23;;;;;;;5.20;0.93;;;;;;;11.86;74.94;99774.22;4990263;28;20046;-75
2021/01/29 04:08:26;;;;;;;13.75;2.17;;;;;;;11.67;75.80;99776.75;4915718;29;20210;-76
2021/01/29 04:11:16;;;;;;;13.50;2.30;;;;;;;11.63;76.24;99786.84;4907133;29;20060;-75
2021/01/29 04:14:27;;;;;;;11.68;1.33;;;;;;;11.93;74.76;99785.50;4880374;29;20096;-75
2021/01/29 04:16:58;;;;;;;9.38;1.55;;;;;;;11.83;74.71;99791.47;4879590;29;20061;-75
2021/01/29 04:19:27;;;;;;;8.73;1.67;;;;;;;11.64;75.64;99799.47;4864827;29;20068;-74
2021/01/29 04:22:06;;;;;;;10.15;1.83;;;;;;;11.59;75.58;99791.44;4864208;29;20057;-74
2021/01/29 04:24:37;;;;;;;7.97;1.40;;;;;;;11.68;75.55;99797.69;4848492;29;20060;-74
2021/01/29 04:27:09;;;;;;;9.38;1.73;;;;;;;11.62;74.79;99805.34;4879241;29;20393;-74
2021/01/29 04:29:44;;;;;;;13.40;2.05;;;;;;;11.54;75.05;99799.94;4858398;29;20094;-74
2021/01/29 04:32:14;;;;;;;9.20;1.65;;;;;;;11.51;75.08;99792.31;4851429;29;20052;-74
2021/01/29 04:34:43;;;;;;;12.35;2.15;;;;;;;11.64;75.01;99810.50;4891529;29;20048;-73
2021/01/29 04:37:17;;;;;;;12.32;1.52;;;;;;;11.71;74.69;99808.84;4901270;29;20056;-74
2021/01/29 04:39:47;;;;;;;12.93;1.77;;;;;;;11.64;74.50;99803.06;4900816;29;20083;-74
2021/01/29 04:42:32;;;;;;;15.45;2.38;;;;;;;11.61;74.97;99806.47;4908563;28;20054;-74
2021/01/29 04:45:18;;;;;;;13.75;1.80;;;;;;;11.70;74.25;99815.47;4972442;28;20070;-75
2021/01/29 04:47:49;;;;;;;13.88;1.85;;;;;;;11.71;73.57;99819.06;4974631;28;20049;-74
2021/01/29 04:51:02;;;;;;;16.13;2.70;;;;;;;11.60;73.89;99812.34;5018091;28;20045;-74
2021/01/29 04:54:04;;;;;;;13.63;1.95;;;;;;;11.73;74.32;99819.53;5045413;28;20369;-74
2021/01/29 04:56:53;;;;;;;15.98;2.53;;;;;;;11.79;73.19;99823.66;5016734;28;20068;-74
2021/01/29 05:00:11;;;;;;;12.57;1.80;;;;;;;11.70;73.38;99832.03;5025925;28;20049;-75
2021/01/29 05:03:13;;;;;;;12.85;2.05;;;;;;;11.60;71.44;99840.72;4960678;28;20055;-74
2021/01/29 05:06:37;;;;;;;15.10;2.35;;;;;;;11.48;72.00;99840.69;4960836;28;20166;-75
2021/01/29 05:09:56;;;;;;;19.38;2.60;;;;;;;11.58;71.56;99840.25;4917574;29;20539;-75
2021/01/29 05:12:54;;;;;;;17.02;2.47;;;;;;;11.62;70.48;99852.22;4874543;29;20048;-74
2021/01/29 05:15:36;;;;;;;15.63;3.38;;;;;;;11.48;70.69;99846.22;4917738;29;20555;-74
2021/01/29 05:18:40;;;;;;;18.77;2.88;;;;;;;11.44;71.57;99855.50;4914575;29;20072;-77
2021/01/29 05:21:19;;;;;;;17.08;2.88;;;;;;;11.55;70.88;99865.78;4898697;29;20567;-76
2021/01/29 05:24:01;;;;;;;16.98;3.10;;;;;;;11.54;70.34;99874.38;4911343;29;20056;-75
2021/01/29 05:26:52;;;;;;;19.77;3.33;;;;;;;11.37;70.72;99872.59;4915024;29;20052;-74
2021/01/29 05:30:01;;;;;;;19.00;2.47;;;;;;;11.32;71.30;99870.84;4918092;29;20044;-74
2021/01/29 05:32:57;;;;;;;23.95;3.70;;;;;;;11.19;71.34;99866.44;4915971;28;20056;-75
2021/01/29 05:35:52;;;;;;;25.92;4.38;;;;;;;11.44;72.41;99861.81;4905035;29;20040;-75
2021/01/29 05:38:33;;;;;;;15.07;2.78;;;;;;;11.62;69.92;99860.50;4963407;28;20645;-76
2021/01/29 05:41:09;;;;;;;21.17;3.05;;;;;;;11.58;70.95;99867.84;4975416;28;20050;-76
2021/01/29 05:44:13;;;;;;;25.33;3.75;;;;;;;11.51;69.12;99867.59;4964027;28;20061;-77
2021/01/29 05:46:58;;;;;;;18.77;3.38;;;;;;;11.44;69.24;99864.56;5034609;28;20045;-73
2021/01/29 05:49:32;;;;;;;25.42;3.45;;;;;;;11.46;69.83;99862.28;5056541;28;20396;-76
2021/01/29 05:52:25;;;;;;;19.77;3.05;;;;;;;11.65;68.91;99867.31;5033997;28;20125;-74
2021/01/29 05:55:01;;;;;;;24.05;4.72;;;;;;;11.67;68.36;99868.59;5055006;28;20049;-75
2021/01/29 05:58:05;;;;;;;23.58;4.13;;;;;;;11.73;67.90;99874.69;5054148;28;20037;-76
2021/01/29 06:00:52;;;;;;;24.10;3.78;;;;;;;11.65;68.60;99867.31;5053854;28;20060;-74
2021/01/29 06:03:45;;;;;;;17.95;3.45;;;;;;;11.49;68.28;99860.81;5036383;28;20052;-74
2021/01/29 06:06:36;;;;;;;24.85;3.95;;;;;;;11.70;68.99;99862.38;5018956;28;20119;-72
2021/01/29 06:09:37;;;;;;;21.10;3.60;;;;;;;11.61;69.33;99877.41;5038878;28;20056;-72
2021/01/29 06:12:05;;;;;;;22.48;3.17;;;;;;;11.47;68.91;99871.38;5053132;28;20045;-73
2021/01/29 06:14:51;;;;;;;24.38;3.67;;;;;;;11.40;69.44;99880.22;5052034;28;20502;-72
2021/01/29 06:18:08;;;;;;;20.98;3.95;;;;;;;11.13;69.15;99883.50;5052603;28;20044;-72
2021/01/29 06:21:12;;;;;;;22.02;3.22;;;;;;;11.15;69.60;99886.75;4955620;28;20054;-75
2021/01/29 06:23:58;;;;;;;20.95;4.07;;;;;;;11.32;69.77;99884.66;4968322;28;20059;-74
2021/01/29 06:26:43;;;;;;;21.77;3.25;;;;;;;11.39;68.97;99881.34;4972224;28;20059;-74
2021/01/29 06:29:22;;;;;;;24.33;4.43;;;;;;;11.59;68.90;99874.97;4955097;28;20053;-75
2021/01/29 06:32:33;;;;;;;20.25;3.08;;;;;;;11.60;69.24;99884.84;4971974;28;20094;-73
2021/01/29 06:35:19;;;;;;;21.38;2.97;;;;;;;11.42;69.31;99888.13;4971193;28;20058;-74
2021/01/29 06:38:20;;;;;;;20.15;3.67;;;;;;;11.51;70.32;99888.84;4972044;28;20054;-73
2021/01/29 06:40:59;;;;;;;20.52;2.92;;;;;;;11.72;69.63;99895.13;4941520;28;20055;-75
2021/01/29 06:43:44;;;;;;;20.33;2.80;;;;;;;11.67;68.36;99898.13;4973600;28;20493;-73
2021/01/29 06:46:26;;;;;;;19.83;3.20;;;;;;;11.59;68.89;99893.47;4971733;28;20055;-73
2021/01/29 06:49:05;;;;;;;18.10;3.40;;;;;;;11.67;69.15;99898.94;4955797;28;20062;-72
2021/01/29 06:51:56;;;;;;;22.35;3.78;;;;;;;11.62;70.95;99895.53;4970256;28;20067;-73
2021/01/29 06:55:01;;;;;;;17.35;2.90;;;;;;;11.49;70.40;99913.22;4954500;28;20059;-71
2021/01/29 06:57:37;;;;;;;20.25;3.17;;;;;;;11.30;71.89;99908.16;5016003;28;20516;-73
2021/01/29 07:00:25;;;;;;;18.08;3.08;;;;;;;11.38;70.95;99912.81;5051227;28;20049;-73
2021/01/29 07:03:17;;;;;;;17.98;3.15;;;;;;;11.30;71.35;99917.25;5052283;28;20469;-73
2021/01/29 07:05:47;;;;;;;20.27;3.60;;;;;;;11.23;71.87;99922.50;5051610;28;20049;-72
2021/01/29 07:08:28;;;;;;;14.95;2.85;;;;;;;11.22;71.05;99920.09;5051551;28;20049;-73
2021/01/29 07:10:57;;;;;;;;;;;;;;;11.22;71.01;99929.16;5051709;28;20053;-72
2021/01/29 07:13:52;;;;;;;17.63;2.88;;;;;;;11.49;71.35;99927.78;5051853;28;19932;-71
2021/01/29 07:16:19;;;;;;;17.48;3.00;;;;;;;11.35;70.58;99927.25;5034443;28;20056;-75
2021/01/29 07:19:40;;;;;;;16.20;2.67;;;;;;;11.52;71.58;99918.84;5034754;28;20048;-75
2021/01/29 07:22:22;;;;;;;21.67;3.15;;;;;;;11.64;70.09;99924.44;4971013;28;20054;-76
2021/01/29 07:24:56;;;;;;;21.92;3.65;;;;;;;11.66;69.99;99924.09;4971573;28;20062;-75
2021/01/29 07:27:29;;;;;;;18.35;2.50;;;;;;;11.87;69.47;99919.34;4966889;28;20507;-71
2021/01/29 07:30:15;;;;;;;19.25;3.38;;;;;;;11.74;69.68;99932.28;4945514;28;20054;-76
2021/01/29 07:32:50;;;;;;;19.50;3.13;;;;;;;11.87;69.90;99925.66;4971472;28;20051;-73
2021/01/29 07:35:29;;;;;;;19.00;2.72;;;;;;;11.96;69.46;99929.13;4971078;28;20047;-76
2021/01/29 07:38:17;;;;;;;16.60;2.85;;;;;;;11.76;69.57;99923.66;4969982;28;20054;-74
2021/01/29 07:41:07;;;;;;;16.48;2.78;;;;;;;11.59;70.63;99921.06;4970103;28;20058;-74
2021/01/29 07:43:52;;;;;;;21.67;2.53;;;;;;;11.64;70.61;99915.31;4956198;28;20054;-74
2021/01/29 07:46:37;;;;;;;19.45;3.08;;;;;;;11.32;71.76;99926.00;4974452;28;20181;-74
2021/01/29 07:49:22;;;;;;;25.70;3.25;;;;;;;11.53;72.03;99916.88;4975487;28;20058;-73
2021/01/29 07:52:07;;;;;;;17.67;3.10;;;;;;;11.38;72.11;99925.78;4958912;28;20055;-72
2021/01/29 07:54:53;;;;;;;20.30;3.17;;;;;;;11.38;71.63;99929.38;4974373;28;20063;-74
2021/01/29 07:57:41;;;;;;;14.95;2.83;;;;;;;11.50;71.36;99934.94;5034083;28;20056;-73
2021/01/29 08:00:38;;;;;;;23.23;3.53;;;;;;;11.60;71.48;99919.91;5054673;28;20049;-72
2021/01/29 08:03:25;;;;;;;21.73;4.00;;;;;;;11.84;70.77;99915.28;5032512;28;20053;-74
2021/01/29 08:06:14;;;;;;;18.38;3.00;;;;;;;11.72;70.37;99928.25;5056251;28;20049;-74
2021/01/29 08:08:55;;;;;;;19.23;3.40;;;;;;;11.85;70.38;99927.97;5036812;28;20373;-75
2021/01/29 08:11:23;;;;;;;21.67;3.88;;;;;;;11.84;70.07;99929.09;5037606;28;20044;-73
2021/01/29 08:13:59;;;;;;;17.27;3.13;;;;;;;11.44;70.91;99943.75;5054981;28;20388;-75
2021/01/29 08:16:43;;;;;;;17.08;3.38;;;;;;;11.59;71.22;99943.13;5054784;28;20064;-73
2021/01/29 08:19:25;;;;;;;19.38;3.95;;;;;;;11.64;70.75;99938.25;5034322;28;20045;-77
2021/01/29 08:21:52;;;;;;;16.38;2.67;;;;;;;11.78;71.19;99916.69;5021402;28;20052;-74
2021/01/29 08:24:38;;;;;;;20.45;3.22;;;;;;;11.68;70.13;99930.09;5055250;28;20473;-72
2021/01/29 08:27:38;;;;;;;23.00;3.67;;;;;;;11.63;69.80;99927.50;5037610;28;20060;-73
2021/01/29 08:31:00;;;;;;;27.08;5.30;;;;;;;11.73;70.04;99930.69;5029978;28;20053;-76
2021/01/29 08:33:55;;;;;;;19.77;4.25;;;;;;;11.56;69.91;99949.31;5036498;28;20053;-72
2021/01/29 08:36:37;;;;;;;19.63;3.35;;;;;;;11.52;69.97;99940.09;5054317;28;20052;-72
2021/01/29 08:39:15;;;;;;;17.90;3.03;;;;;;;11.70;70.99;99936.88;5045048;28;20049;-72
2021/01/29 08:42:24;;;;;;;19.58;4.32;;;;;;;11.80;69.42;99927.38;5004167;28;20045;-75
2021/01/29 08:44:59;;;;;;;22.25;3.42;;;;;;;12.01;69.84;99930.88;5054243;28;20068;-71
2021/01/29 08:47:35;;;;;;;25.25;4.00;;;;;;;11.89;69.70;99931.63;5053056;28;20500;-74
2021/01/29 08:50:05;;;;;;;15.90;3.10;;;;;;;11.92;69.28;99924.63;5053856;28;20392;-72
2021/01/29 08:52:32;;;;;;;23.17;4.35;;;;;;;11.83;69.59;99927.50;5054750;28;20534;-72
2021/01/29 08:55:10;;;;;;;27.00;4.43;;;;;;;11.84;70.21;99928.28;5053300;28;20052;-73
2021/01/29 08:57:52;;;;;;;22.88;4.13;;;;;;;11.91;69.72;99920.25;5023336;28;20045;-74
2021/01/29 09:00:23;;;;;;;31.98;5.07;;;;;;;12.04;69.55;99908.91;5027792;28;20504;-72
2021/01/29 09:03:00;;;;;;;25.83;4.15;;;;;;;11.97;69.50;99905.91;5017177;28;20045;-74
2021/01/29 09:05:30;;;;;;;28.50;5.05;;;;;;;12.05;69.23;99912.47;5039921;28;20056;-77
2021/01/29 09:08:03;;;;;;;28.73;4.35;;;;;;;12.15;68.87;99909.28;5018293;28;20045;-76
2021/01/29 09:10:57;;;;;;;21.75;3.70;;;;;;;12.23;69.36;99911.13;5035675;28;20056;-77
2021/01/29 09:13:25;;;;;;;21.65;4.30;;;;;;;12.25;69.48;99931.72;5036580;28;20041;-75
2021/01/29 09:16:00;;;;;;;25.70;4.10;;;;;;;12.44;67.53;99912.63;5035398;28;20547;-75
2021/01/29 09:18:27;;;;;;;23.90;4.60;;;;;;;12.51;68.56;99922.28;5033281;28;20375;-77
2021/01/29 09:21:10;;;;;;;18.60;3.42;;;;;;;12.43;68.23;99907.44;5048321;28;20052;-76
2021/01/29 09:24:05;;;;;;;25.40;4.15;;;;;;;12.08;68.68;99909.81;5038492;28;20045;-77
2021/01/29 09:26:44;;;;;;;22.55;3.97;;;;;;;12.16;68.37;99910.88;5032221;28;20053;-77
2021/01/29 09:29:22;;;;;;;28.88;5.03;;;;;;;11.88;70.16;99896.91;5032715;28;20045;-75
2021/01/29 09:31:55;;;;;;;26.95;3.90;;;;;;;12.02;69.30;99893.84;5019531;28;20049;-77
2021/01/29 09:34:28;;;;;;;21.65;3.92;;;;;;;12.08;68.97;99889.72;5035734;28;20044;-71
2021/01/29 09:36:59;;;;;;;23.52;4.95;;;;;;;12.38;69.52;99894.66;5033874;28;20039;-69
2021/01/29 09:39:44;;;;;;;23.58;4.30;;;;;;;12.42;67.29;99906.66;5037003;28;20045;-71
2021/01/29 09:42:14;;;;;;;22.92;4.70;;;;;;;12.22;68.45;99899.25;5032072;28;20052;-71
2021/01/29 09:44:57;;;;;;;21.52;4.03;;;;;;;12.36;69.90;99902.50;5035333;28;20052;-75
2021/01/29 09:47:25;;;;;;;23.02;4.10;;;;;;;12.39;67.79;99885.25;5035844;28;20049;-72
2021/01/29 09:50:05;;;;;;;25.90;4.18;;;;;;;12.31;67.07;99901.91;5019079;28;20524;-73
2021/01/29 09:53:06;;;;;;;27.88;4.57;;;;;;;12.43;68.68;99896.38;5035584;28;20048;-76
2021/01/29 09:55:44;;;;;;;29.17;4.90;;;;;;;12.20;68.03;99900.75;5052451;28;20384;-70
2021/01/29 09:58:20;;;;;;;25.73;4.47;;;;;;;12.32;68.53;99903.53;5034951;28;20052;-71
2021/01/29 10:01:02;;;;;;;34.47;4.72;;;;;;;12.46;67.37;99895.72;5018410;28;20041;-71
2021/01/29 10:03:45;;;;;;;29.30;5.72;;;;;;;12.06;67.79;99895.59;5035552;28;20045;-71
2021/01/29 10:06:25;;;;;;;29.42;4.85;;;;;;;12.21;68.46;99892.13;5031464;28;20041;-74
2021/01/29 10:08:56;;;;;;;28.00;4.68;;;;;;;12.43;66.91;99885.34;5031851;28;20392;-71
2021/01/29 10:11:38;;;;;;;27.83;5.57;;;;;;;11.98;68.33;99879.91;5019344;28;20048;-74
2021/01/29 10:14:08;;;;;;;26.33;4.63;;;;;;;12.17;68.62;99876.59;5017536;28;20136;-75
2021/01/29 10:16:44;;;;;;;29.52;5.93;;;;;;;11.96;67.41;99878.66;5034462;28;20045;-73
2021/01/29 10:19:14;;;;;;;27.58;4.88;;;;;;;12.13;67.42;99887.50;5052869;28;20489;-72
2021/01/29 10:21:56;;;;;;;26.17;4.45;;;;;;;12.19;66.92;99879.81;5053055;28;20053;-74
2021/01/29 10:24:54;;;;;;;26.95;4.65;;;;;;;12.39;67.03;99893.53;5032592;28;20062;-74
2021/01/29 10:28:03;;;;;;;25.85;4.85;;;;;;;12.51;66.50;99889.13;5026164;28;20049;-72
2021/01/29 10:30:41;;;;;;;23.65;4.00;;;;;;;12.98;65.50;99891.03;4939019;28;20050;-75
2021/01/29 10:33:22;;;;;;;27.60;4.82;;;;;;;12.97;66.17;99892.16;4971692;28;20166;-75
2021/01/29 10:36:05;;;;;;;27.73;4.60;;;;;;;12.69;65.90;99898.81;4955614;28;20050;-74
2021/01/29 10:38:38;;;;;;;31.60;5.28;;;;;;;12.34;66.75;99896.50;4955184;28;20442;-73
2021/01/29 10:41:20;;;;;;;22.23;3.97;;;;;;;12.15;67.87;99890.72;4967607;28;20170;-73
2021/01/29 10:44:08;;;;;;;21.48;3.72;;;;;;;12.11;68.82;99889.84;4964863;28;20055;-74
2021/01/29 10:47:04;;;;;;;29.05;6.05;;;;;;;12.02;68.17;99893.84;4960325;28;20066;-72
2021/01/29 10:49:53;;;;;;;21.25;4.03;;;;;;;12.35;66.36;99900.88;4951970;28;20047;-75
2021/01/29 10:52:41;;;;;;;22.33;4.28;;;;;;;12.14;65.18;99891.91;4961393;28;20043;-75
2021/01/29 10:55:27;;;;;;;25.90;3.65;;;;;;;12.08;64.56;99900.75;4955944;28;20545;-76
2021/01/29 10:58:12;;;;;;;21.92;4.60;;;;;;;11.99;65.09;99894.53;4943112;28;20154;-75
2021/01/29 11:00:42;;;;;;;21.15;3.17;;;;;;;12.06;64.17;99898.34;4967943;28;20160;-73
2021/01/29 11:03:21;;;;;;;24.23;4.20;;;;;;;12.03;64.03;99887.19;4954797;28;20546;-75
2021/01/29 11:05:49;;;;;;;23.02;4.20;;;;;;;12.20;64.34;99878.69;4961402;28;20459;-76
2021/01/29 11:08:25;;;;;;;20.05;4.13;;;;;;;12.10;63.32;99879.13;5051849;28;20053;-74
2021/01/29 11:11:00;;;;;;;16.48;2.72;;;;;;;12.18;63.91;99881.78;5033802;28;20053;-75
2021/01/29 11:14:00;;;;;;;25.95;4.00;;;;;;;12.43;63.19;99871.53;5032808;28;20056;-76
2021/01/29 11:16:44;;;;;;;22.33;3.90;;;;;;;12.36;61.99;99877.63;5034593;28;20388;-75
2021/01/29 11:19:20;;;;;;;18.75;3.92;;;;;;;12.22;61.82;99871.66;5030620;28;20044;-75
2021/01/29 11:22:03;;;;;;;17.95;3.35;;;;;;;12.14;61.30;99869.00;5025804;28;20055;-75
2021/01/29 11:25:11;;;;;;;20.67;3.42;;;;;;;12.32;62.43;99881.44;5041014;28;20064;-77
2021/01/29 11:28:10;;;;;;;19.55;4.15;;;;;;;12.28;62.10;99878.56;5022274;28;20044;-76
2021/01/29 11:31:03;;;;;;;22.13;3.47;;;;;;;12.34;60.61;99866.13;5047723;28;20060;-76
2021/01/29 11:33:42;;;;;;;21.55;3.38;;;;;;;12.16;61.85;99877.75;5038122;28;20064;-80
2021/01/29 11:36:25;;;;;;;19.73;3.83;;;;;;;12.30;61.80;99854.19;5021564;28;20048;-75
2021/01/29 11:39:33;;;;;;;17.00;2.70;;;;;;;12.17;61.58;99860.84;5029721;28;20060;-77
2021/01/29 11:42:07;;;;;;;16.10;3.10;;;;;;;12.29;60.62;99860.06;5042323;28;20091;-76
2021/01/29 11:45:01;;;;;;;16.35;2.78;;;;;;;12.39;60.72;99854.06;5039946;28;20155;-75
2021/01/29 11:47:48;;;;;;;16.95;2.92;;;;;;;12.31;60.55;99858.53;5041160;28;20061;-77
2021/01/29 11:50:22;;;;;;;14.57;2.67;;;;;;;12.28;59.78;99850.94;5042525;28;20424;-77
2021/01/29 11:52:56;;;;;;;16.27;2.55;;;;;;;12.33;59.60;99858.19;5025724;28;20049;-76
2021/01/29 11:55:33;;;;;;;12.27;2.67;;;;;;;12.36;59.60;99874.09;5024057;28;20504;-73
2021/01/29 11:58:23;;;;;;;18.58;3.00;;;;;;;12.34;58.85;99868.88;5024124;28;20107;-75
2021/01/29 12:01:08;;;;;;;15.07;2.80;;;;;;;12.22;58.08;99855.09;5046464;28;20045;-77
2021/01/29 12:03:47;;;;;;;19.33;3.50;;;;;;;12.32;57.08;99876.72;5007439;28;20053;-73
2021/01/29 12:06:35;;;;;;;14.85;2.63;;;;;;;12.24;56.71;99874.06;5025456;28;20044;-78
2021/01/29 12:09:18;;;;;;;20.95;3.60;;;;;;;12.22;56.64;99874.41;5036455;28;20523;-74
2021/01/29 12:12:19;;;;;;;14.80;3.33;;;;;;;12.14;56.72;99891.91;5022360;28;20041;-75
2021/01/29 12:15:09;;;;;;;16.48;2.92;;;;;;;12.26;57.10;99878.09;5034623;28;20056;-76
2021/01/29 12:17:36;;;;;;;13.82;2.85;;;;;;;12.29;56.06;99862.81;5047063;28;20057;-75
2021/01/29 12:20:33;;;;;;;20.88;3.35;;;;;;;12.23;56.54;99878.78;5054209;28;20396;-76
2021/01/29 12:23:03;;;;;;;15.20;3.67;;;;;;;12.28;55.44;99873.03;5031729;28;20056;-78
2021/01/29 12:25:54;;;;;;;16.83;3.40;;;;;;;12.38;55.97;99880.84;5052596;28;20060;-80
2021/01/29 12:29:02;;;;;;;17.38;2.65;;;;;;;12.09;55.87;99883.03;5047987;28;20053;-78
2021/01/29 12:31:38;;;;;;;13.32;2.70;;;;;;;12.10;54.96;99876.38;5054415;28;20045;-76
2021/01/29 12:34:26;;;;;;;18.33;3.63;;;;;;;12.19;54.81;99863.25;5026618;28;20515;-76
2021/01/29 12:37:07;;;;;;;16.33;2.80;;;;;;;11.93;55.95;99865.53;5040037;28;20052;-77
2021/01/29 12:39:39;;;;;;;14.95;3.30;;;;;;;12.01;56.23;99870.16;5051763;28;20057;-78
2021/01/29 12:42:43;;;;;;;18.70;3.65;;;;;;;11.87;56.83;99859.41;5042642;28;20410;-79
2021/01/29 12:45:19;;;;;;;20.05;4.00;;;;;;;11.99;57.69;99855.88;5034763;28;20076;-80
2021/01/29 12:48:08;;;;;;;15.25;2.92;;;;;;;11.69;58.30;99854.44;5040771;28;20053;-79
2021/01/29 12:51:30;;;;;;;19.63;2.80;;;;;;;11.66;57.20;99844.09;5040902;28;20500;-79
2021/01/29 12:54:22;;;;;;;15.18;2.78;;;;;;;11.83;56.43;99853.00;5036431;28;20040;-79